createdAt,value
2022-08-18T00:02:39.554Z,3.72
2022-08-18T00:07:47.541Z,3.78
2022-08-18T00:12:50.514Z,2.55
2022-08-18T00:17:53.559Z,3.38
2022-08-18T00:22:57.843Z,6.85
2022-08-18T00:28:00.683Z,2.83
2022-08-18T00:33:03.742Z,2.80
2022-08-18T00:38:09.448Z,6.55
2022-08-18T00:43:32.710Z,5.80
2022-08-18T00:48:35.609Z,4.53
2022-08-18T00:53:45.613Z,5.15
2022-08-18T00:58:52.274Z,5.53
2022-08-18T01:04:00.331Z,2.55
2022-08-18T01:09:04.784Z,2.97
2022-08-18T01:14:11.353Z,5.15
2022-08-18T01:19:32.125Z,4.30
2022-08-18T01:24:54.857Z,6.50
2022-08-18T01:29:58.989Z,3.60
2022-08-18T01:35:01.823Z,3.33
2022-08-18T01:41:22.245Z,3.72
2022-08-18T01:45:33.629Z,4.07
2022-08-18T01:50:39.802Z,4.15
2022-08-18T01:55:45.473Z,4.35
2022-08-18T02:00:48.190Z,2.72
2022-08-18T02:05:53.269Z,3.20
2022-08-18T02:10:58.724Z,4.32
2022-08-18T02:16:02.095Z,3.45
2022-08-18T02:21:10.390Z,4.25
2022-08-18T02:26:17.230Z,4.40
2022-08-18T02:31:24.266Z,6.18
2022-08-18T02:36:27.110Z,6.45
2022-08-18T02:41:31.247Z,5.72
2022-08-18T02:46:34.003Z,5.22
2022-08-18T02:51:36.772Z,3.38
2022-08-18T02:56:42.586Z,4.00
2022-08-18T03:01:47.045Z,3.38
2022-08-18T03:06:49.834Z,3.45
2022-08-18T03:11:54.607Z,3.45
2022-08-18T03:16:58.194Z,4.00
2022-08-18T03:22:02.878Z,6.05
2022-08-18T03:27:08.533Z,3.88
2022-08-18T03:32:11.301Z,5.03
2022-08-18T03:37:15.864Z,4.22
2022-08-18T03:42:19.983Z,5.90
2022-08-18T03:47:22.670Z,5.30
2022-08-18T03:52:25.339Z,4.30
2022-08-18T03:57:33.165Z,6.97
2022-08-18T04:02:41.843Z,4.05
2022-08-18T04:07:44.536Z,5.68
2022-08-18T04:12:48.822Z,5.30
2022-08-18T04:18:03.055Z,4.78
2022-08-18T04:23:06.862Z,5.40
2022-08-18T04:28:11.091Z,5.47
2022-08-18T04:33:13.981Z,4.53
2022-08-18T04:38:16.693Z,4.13
2022-08-18T04:43:20.913Z,2.92
2022-08-18T04:48:23.681Z,3.33
2022-08-18T04:53:43.918Z,3.95
2022-08-18T04:58:52.205Z,3.78
2022-08-18T05:03:55.954Z,5.57
2022-08-18T05:09:00.289Z,4.70
2022-08-18T05:14:06.616Z,4.35
2022-08-18T05:19:11.808Z,4.78
2022-08-18T05:24:14.566Z,5.00
2022-08-18T05:29:19.567Z,5.47
2022-08-18T05:34:23.912Z,7.60
2022-08-18T05:39:31.230Z,6.30
2022-08-18T05:44:37.006Z,8.68
2022-08-18T05:49:40.158Z,3.90
2022-08-18T05:55:04.434Z,5.70
2022-08-18T06:00:11.052Z,5.40
2022-08-18T06:05:25.386Z,10.60
2022-08-18T06:10:28.639Z,7.85
2022-08-18T06:15:39.484Z,6.50
2022-08-18T06:20:52.618Z,7.20
2022-08-18T06:26:05.338Z,5.57
2022-08-18T06:31:15.545Z,5.70
2022-08-18T06:36:24.006Z,5.35
2022-08-18T06:41:42.215Z,5.00
2022-08-18T06:46:53.849Z,7.68
2022-08-18T06:51:57.152Z,5.10
2022-08-18T06:56:59.955Z,8.00
2022-08-18T07:02:18.700Z,6.38
2022-08-18T07:07:39.509Z,8.05
2022-08-18T07:12:53.528Z,4.60
2022-08-18T07:18:04.969Z,4.53
2022-08-18T07:23:08.559Z,6.95
2022-08-18T07:28:28.682Z,5.10
2022-08-18T07:33:33.068Z,4.43
2022-08-18T07:38:43.282Z,3.60
2022-08-18T07:43:57.250Z,4.78
2022-08-18T07:49:01.878Z,5.68
2022-08-18T07:54:31.204Z,4.03
2022-08-18T07:59:38.866Z,4.68
2022-08-18T08:04:49.874Z,4.82
2022-08-18T08:09:57.932Z,4.03
2022-08-18T08:15:07.249Z,5.07
2022-08-18T08:20:17.955Z,6.18
2022-08-18T08:30:54.531Z,4.30
2022-08-18T08:36:04.692Z,5.80
2022-08-18T08:41:11.892Z,4.63
2022-08-18T08:46:17.841Z,7.40
2022-08-18T08:51:36.027Z,6.40
2022-08-18T08:56:44.368Z,5.82
2022-08-18T09:01:57.202Z,6.82
2022-08-18T09:07:14.222Z,6.82
2022-08-18T09:12:28.378Z,9.57
2022-08-18T09:17:50.886Z,8.20
2022-08-18T09:22:57.636Z,8.50
2022-08-18T09:28:12.301Z,6.53
2022-08-18T09:33:35.116Z,8.05
2022-08-18T09:39:06.853Z,8.98
2022-08-18T09:49:47.789Z,9.68
2022-08-18T09:50:37.283Z,7.95
2022-08-18T09:55:00.987Z,7.13
2022-08-18T10:00:29.202Z,7.50
2022-08-18T10:05:33.278Z,8.80
2022-08-18T10:16:15.069Z,10.10
2022-08-18T10:21:24.414Z,8.70
2022-08-18T10:27:09.004Z,10.50
2022-08-18T10:32:38.010Z,12.38
2022-08-18T10:37:44.228Z,13.45
2022-08-18T10:42:53.450Z,11.10
2022-08-18T10:48:17.357Z,8.63
2022-08-18T10:53:40.173Z,9.68
2022-08-18T10:59:05.390Z,10.63
2022-08-18T11:04:21.428Z,7.55
2022-08-18T11:09:36.915Z,13.80
2022-08-18T11:20:35.062Z,8.02
2022-08-18T11:25:39.864Z,7.95
2022-08-18T11:30:45.418Z,9.43
2022-08-18T11:35:52.397Z,9.45
2022-08-18T11:46:38.777Z,12.50
2022-08-18T11:51:55.609Z,11.77
2022-08-18T11:57:29.630Z,9.30
2022-08-18T12:02:32.468Z,9.52
2022-08-18T12:07:37.385Z,11.10
2022-08-18T12:12:46.425Z,8.25
2022-08-18T12:17:53.890Z,10.07
2022-08-18T12:22:58.296Z,8.98
2022-08-18T12:28:01.126Z,9.93
2022-08-18T12:33:08.143Z,10.57
2022-08-18T12:38:17.805Z,10.55
2022-08-18T12:43:21.344Z,8.88
2022-08-18T12:48:28.300Z,8.80
2022-08-18T12:53:58.160Z,8.88
2022-08-18T12:58:55.474Z,11.82
2022-08-18T13:04:12.534Z,12.23
2022-08-18T13:09:35.285Z,10.05
2022-08-18T13:14:41.184Z,9.48
2022-08-18T13:19:46.363Z,8.88
2022-08-18T13:24:50.783Z,7.55
2022-08-18T13:29:56.155Z,10.48
2022-08-18T13:34:59.511Z,9.98
2022-08-18T13:40:07.944Z,7.65
2022-08-18T13:45:23.309Z,9.18
2022-08-18T13:50:29.912Z,8.27
2022-08-18T13:55:34.340Z,7.88
2022-08-18T14:00:38.003Z,9.65
2022-08-18T14:05:51.258Z,8.13
2022-08-18T14:11:01.665Z,12.23
2022-08-18T14:16:05.097Z,8.30
2022-08-18T14:21:25.583Z,7.70
2022-08-18T14:26:50.546Z,8.52
2022-08-18T14:31:53.558Z,8.88
2022-08-18T14:36:57.638Z,10.10
2022-08-18T14:42:03.032Z,9.35
2022-08-18T14:47:06.379Z,9.07
2022-08-18T14:52:10.555Z,8.20
2022-08-18T14:57:18.618Z,8.88
2022-08-18T15:02:28.642Z,9.63
2022-08-18T15:07:32.825Z,10.73
2022-08-18T15:12:37.297Z,6.82
2022-08-18T15:17:41.343Z,7.57
2022-08-18T15:23:03.082Z,8.07
2022-08-18T15:28:08.352Z,9.05
2022-08-18T15:33:23.624Z,9.13
2022-08-18T15:38:27.626Z,7.18
2022-08-18T15:43:33.846Z,7.95
2022-08-18T15:48:36.655Z,6.78
2022-08-18T15:53:44.465Z,7.80
2022-08-18T15:58:49.372Z,6.90
2022-08-18T16:03:53.384Z,6.95
2022-08-18T16:08:56.329Z,6.03
2022-08-18T16:14:01.004Z,7.10
2022-08-18T16:19:05.132Z,6.32
2022-08-18T16:24:09.006Z,7.85
2022-08-18T16:29:13.056Z,6.07
2022-08-18T16:34:15.759Z,6.50
2022-08-18T16:39:18.563Z,6.97
2022-08-18T16:44:24.878Z,6.53
2022-08-18T16:49:27.754Z,6.07
2022-08-18T16:54:31.065Z,6.70
2022-08-18T17:00:04.227Z,5.53
2022-08-18T17:05:07.537Z,5.20
2022-08-18T17:10:10.487Z,6.65
2022-08-18T17:15:15.405Z,6.38
2022-08-18T17:20:19.215Z,7.38
2022-08-18T17:25:25.760Z,5.35
2022-08-18T17:30:36.803Z,5.82
2022-08-18T17:35:42.260Z,9.15
2022-08-18T17:40:47.949Z,6.85
2022-08-18T17:45:56.202Z,7.43
2022-08-18T17:51:21.044Z,6.63
2022-08-18T17:56:35.671Z,6.85
2022-08-18T18:01:42.608Z,5.75
2022-08-18T18:06:48.217Z,5.78
2022-08-18T18:11:52.430Z,8.55
2022-08-18T18:17:12.768Z,9.93
2022-08-18T18:22:20.839Z,10.07
2022-08-18T18:27:27.776Z,10.73
2022-08-18T18:32:35.241Z,13.30
2022-08-18T18:37:45.199Z,21.15
2022-08-18T18:42:50.582Z,15.25
2022-08-18T18:48:01.610Z,15.45
2022-08-18T18:53:14.110Z,10.52
2022-08-18T18:58:24.398Z,8.95
2022-08-18T19:03:34.635Z,11.38
2022-08-18T19:08:46.118Z,9.50
2022-08-18T19:13:55.117Z,9.25
2022-08-18T19:19:36.127Z,11.75
2022-08-18T19:24:26.282Z,8.32
2022-08-18T19:29:31.959Z,7.13
2022-08-18T19:34:42.445Z,7.28
2022-08-18T19:40:00.814Z,7.95
2022-08-18T19:45:16.625Z,7.60
2022-08-18T19:50:29.698Z,7.53
2022-08-18T19:55:41.551Z,9.20
2022-08-18T20:00:48.668Z,7.38
2022-08-18T20:06:14.161Z,9.90
2022-08-18T20:11:44.601Z,12.93
2022-08-18T20:17:14.470Z,10.40
2022-08-18T20:22:32.630Z,11.95
2022-08-18T20:27:38.937Z,11.82
2022-08-18T20:32:41.750Z,10.13
2022-08-18T20:37:46.116Z,10.68
2022-08-18T20:42:55.928Z,11.63
2022-08-18T20:48:23.766Z,11.27
2022-08-18T20:53:40.225Z,14.85
2022-08-18T20:58:51.405Z,13.13
2022-08-18T21:03:54.252Z,13.93
2022-08-18T21:09:04.031Z,14.65
2022-08-18T21:14:07.859Z,11.35
2022-08-18T21:19:17.984Z,11.35
2022-08-18T21:24:28.913Z,11.48
2022-08-18T21:29:44.222Z,10.18
2022-08-18T21:34:52.345Z,13.88
2022-08-18T21:39:59.346Z,10.95
2022-08-18T21:45:02.507Z,12.00
2022-08-18T21:50:11.379Z,10.98
2022-08-18T21:55:30.157Z,11.02
2022-08-18T22:00:34.905Z,10.90
2022-08-18T22:05:58.710Z,9.85
2022-08-18T22:12:00.887Z,9.90
2022-08-18T22:17:32.810Z,8.63
2022-08-18T22:22:53.438Z,9.80
2022-08-18T22:28:00.389Z,8.95
2022-08-18T22:33:03.156Z,9.98
2022-08-18T22:38:05.935Z,8.43
2022-08-18T22:43:10.382Z,8.40
2022-08-18T22:48:16.494Z,9.27
2022-08-18T22:53:19.421Z,9.07
2022-08-18T22:58:28.245Z,7.95
2022-08-18T23:03:31.365Z,10.00
2022-08-18T23:08:55.188Z,14.07
2022-08-18T23:14:00.954Z,10.07
2022-08-18T23:19:03.690Z,13.20
2022-08-18T23:24:07.149Z,11.15
2022-08-18T23:29:11.663Z,10.90
2022-08-18T23:34:17.315Z,11.43
2022-08-18T23:39:20.215Z,12.07
2022-08-18T23:44:27.810Z,11.60
2022-08-18T23:49:31.595Z,14.00
2022-08-18T23:54:36.030Z,11.70
2022-08-18T23:59:40.069Z,13.38
